Time;durP1;ratioP1;P1;durP2;ratioP2;P2;SDS_P1;SDS_P2;PMS_P1;PMS_P2;Temp;Humidity;BMP_temperature;BMP_pressure;BME280_temperature;BME280_humidity;BME280_pressure;Samples;Min_cycle;Max_cycle;Signal;HPM_P1;HPM_P2
2023/03/18 00:01:36;;;;;;;29.87;15.43;;;10.10;78.10;;;;;;4987891;28;20573;-80
2023/03/18 00:04:05;;;;;;;19.30;12.40;;;10.10;78.20;;;;;;5008864;28;20460;-80
2023/03/18 00:06:38;;;;;;;23.20;14.07;;;10.10;78.20;;;;;;4976260;28;20464;-79
2023/03/18 00:09:11;;;;;;;35.90;16.53;;;10.10;78.20;;;;;;4994779;28;20492;-80
2023/03/18 00:11:42;;;;;;;24.07;13.73;;;10.10;78.10;;;;;;4994861;28;20482;-80
2023/03/18 00:14:13;;;;;;;23.73;12.90;;;10.10;78.10;;;;;;5008828;28;20493;-80
2023/03/18 00:16:42;;;;;;;17.93;12.87;;;10.00;78.10;;;;;;4998022;28;20481;-80
2023/03/18 00:19:10;;;;;;;23.60;13.47;;;10.00;78.10;;;;;;4989797;28;20453;-80
2023/03/18 00:21:49;;;;;;;35.50;21.97;;;10.00;78.20;;;;;;5007466;28;20489;-81
2023/03/18 00:24:19;;;;;;;62.27;28.27;;;10.00;78.10;;;;;;4996740;28;20469;-80
2023/03/18 00:26:48;;;;;;;53.80;23.27;;;10.00;78.20;;;;;;5008340;28;20484;-80
2023/03/18 00:29:23;;;;;;;51.30;21.50;;;10.00;78.10;;;;;;4991635;28;20469;-81
2023/03/18 00:31:53;;;;;;;37.37;18.60;;;9.90;78.10;;;;;;5008672;28;20473;-80
2023/03/18 00:34:23;;;;;;;31.93;16.13;;;9.90;78.10;;;;;;4993906;28;20472;-80
2023/03/18 00:36:55;;;;;;;22.03;14.53;;;9.90;78.20;;;;;;4989795;28;20849;-80
2023/03/18 00:39:27;;;;;;;25.53;15.50;;;9.90;78.30;;;;;;5007345;28;20481;-80
2023/03/18 00:42:09;;;;;;;20.33;14.00;;;9.90;78.20;;;;;;4981145;28;20470;-81
2023/03/18 00:44:42;;;;;;;21.07;13.00;;;9.90;78.20;;;;;;5003056;28;20449;-80
2023/03/18 00:47:17;;;;;;;35.37;15.90;;;9.80;78.20;;;;;;4991696;28;20461;-80
2023/03/18 00:49:53;;;;;;;24.67;15.37;;;9.80;78.20;;;;;;4992918;28;20477;-79
2023/03/18 00:52:32;;;;;;;33.17;15.87;;;9.80;78.20;;;;;;5005032;28;20461;-80
2023/03/18 00:55:02;;;;;;;28.03;13.60;;;9.80;78.20;;;;;;5003371;28;20456;-80
2023/03/18 00:57:37;;;;;;;26.20;13.03;;;9.80;78.20;;;;;;4985589;28;20773;-80
2023/03/18 01:00:08;;;;;;;29.10;11.47;;;9.80;78.20;;;;;;5004730;28;20456;-80
2023/03/18 01:02:41;;;;;;;21.03;11.27;;;9.70;78.20;;;;;;5011016;28;20468;-81
2023/03/18 01:05:13;;;;;;;14.67;8.27;;;9.70;78.20;;;;;;5025280;28;20467;-80
2023/03/18 01:07:46;;;;;;;16.03;9.17;;;9.70;78.20;;;;;;5026262;28;20467;-79
2023/03/18 01:10:16;;;;;;;40.67;17.80;;;9.70;78.10;;;;;;4987698;28;20484;-80
2023/03/18 01:12:46;;;;;;;33.73;16.17;;;9.70;78.00;;;;;;5011116;28;20472;-80
2023/03/18 01:15:18;;;;;;;25.60;13.70;;;9.70;78.00;;;;;;5014015;28;20453;-80
2023/03/18 01:17:47;;;;;;;27.87;13.20;;;9.60;78.00;;;;;;5004287;28;20522;-80
2023/03/18 01:20:18;;;;;;;29.30;11.93;;;9.60;78.00;;;;;;5022176;28;20820;-80
2023/03/18 01:22:53;;;;;;;24.03;13.70;;;9.60;78.00;;;;;;5027565;28;20475;-79
2023/03/18 01:25:22;;;;;;;43.20;23.70;;;9.60;78.00;;;;;;5023799;28;20457;-80
2023/03/18 01:27:54;;;;;;;24.37;14.53;;;9.60;78.10;;;;;;5006799;28;20502;-80
2023/03/18 01:30:23;;;;;;;34.07;18.60;;;9.50;78.10;;;;;;4994675;28;20469;-80
2023/03/18 01:32:55;;;;;;;38.50;21.10;;;9.50;78.20;;;;;;5001111;28;20468;-79
2023/03/18 01:35:27;;;;;;;19.43;11.33;;;9.50;78.20;;;;;;5027093;28;20971;-79
2023/03/18 01:38:00;;;;;;;16.30;9.53;;;9.50;78.20;;;;;;5006402;28;20455;-80
2023/03/18 01:40:34;;;;;;;13.37;9.00;;;9.50;78.20;;;;;;5009513;28;20489;-80
2023/03/18 01:43:16;;;;;;;14.67;8.80;;;9.50;78.30;;;;;;4997606;28;20460;-80
2023/03/18 01:45:49;;;;;;;17.87;8.60;;;9.50;78.40;;;;;;5022817;28;20491;-80
2023/03/18 01:48:22;;;;;;;14.17;8.77;;;9.50;78.40;;;;;;5024083;28;20464;-80
2023/03/18 01:51:01;;;;;;;13.00;8.77;;;9.50;78.50;;;;;;5001596;28;20484;-80
2023/03/18 01:53:38;;;;;;;14.10;9.27;;;9.50;78.50;;;;;;4994548;28;20671;-80
2023/03/18 01:56:08;;;;;;;15.80;10.27;;;9.60;78.60;;;;;;4990960;28;20555;-80
2023/03/18 01:58:42;;;;;;;17.10;11.03;;;9.60;78.60;;;;;;4991327;28;20471;-80
2023/03/18 02:01:18;;;;;;;17.23;10.80;;;9.60;78.50;;;;;;5006133;28;20514;-80
2023/03/18 02:03:50;;;;;;;24.60;13.37;;;9.70;78.50;;;;;;5020373;28;20811;-80
2023/03/18 02:06:20;;;;;;;21.43;13.00;;;9.70;78.40;;;;;;5020982;28;20476;-79
2023/03/18 02:09:06;;;;;;;16.70;9.10;;;9.60;78.50;;;;;;5023699;28;20459;-81
2023/03/18 02:11:38;;;;;;;14.93;9.17;;;9.70;78.50;;;;;;5023941;28;20468;-80
2023/03/18 02:14:09;;;;;;;12.10;7.93;;;9.70;78.50;;;;;;5022616;28;20464;-81
2023/03/18 02:16:52;;;;;;;11.60;7.83;;;9.70;78.50;;;;;;5011522;28;20459;-80
2023/03/18 02:19:41;;;;;;;15.87;9.30;;;9.70;78.50;;;;;;5004408;28;20821;-80
2023/03/18 02:22:26;;;;;;;18.40;10.80;;;9.70;78.50;;;;;;5021070;28;20550;-80
2023/03/18 02:25:24;;;;;;;16.70;10.73;;;9.70;78.50;;;;;;5024917;28;20456;-80
2023/03/18 02:28:02;;;;;;;12.30;8.57;;;9.70;78.60;;;;;;5004222;28;20518;-80
2023/03/18 02:30:36;;;;;;;15.37;9.20;;;9.70;78.60;;;;;;4987459;28;20476;-80
2023/03/18 02:33:11;;;;;;;21.40;9.97;;;9.70;78.60;;;;;;5011860;28;20807;-80
2023/03/18 02:35:45;;;;;;;18.60;10.43;;;9.70;78.60;;;;;;5010323;28;20463;-80
2023/03/18 02:38:18;;;;;;;19.43;12.77;;;9.70;78.60;;;;;;5021280;28;20494;-80
2023/03/18 02:40:52;;;;;;;21.87;12.10;;;9.70;78.60;;;;;;5015601;28;20495;-80
2023/03/18 02:43:29;;;;;;;14.23;8.90;;;9.70;78.70;;;;;;5011418;28;20459;-80
2023/03/18 02:46:39;;;;;;;13.80;8.70;;;9.60;78.70;;;;;;5012970;28;20475;-80
2023/03/18 02:49:12;;;;;;;31.83;17.60;;;9.60;78.80;;;;;;5023486;28;20442;-79
2023/03/18 02:51:41;;;;;;;15.40;9.97;;;9.60;78.90;;;;;;5016579;28;20501;-80
2023/03/18 02:54:15;;;;;;;13.63;9.53;;;9.60;78.90;;;;;;5022102;28;20454;-80
2023/03/18 02:56:45;;;;;;;18.37;11.07;;;9.60;79.00;;;;;;5001093;28;20464;-80
2023/03/18 02:59:16;;;;;;;14.13;8.80;;;9.70;79.00;;;;;;5008462;28;21031;-81
2023/03/18 03:01:47;;;;;;;13.90;10.37;;;9.70;79.00;;;;;;5005016;28;20564;-79
2023/03/18 03:04:18;;;;;;;15.80;10.00;;;9.70;79.10;;;;;;5026805;28;20468;-80
2023/03/18 03:06:51;;;;;;;20.13;11.90;;;9.70;79.10;;;;;;5031415;28;20457;-79
2023/03/18 03:09:32;;;;;;;16.83;9.50;;;9.70;79.10;;;;;;5013266;28;20463;-79
2023/03/18 03:12:01;;;;;;;13.90;8.70;;;9.70;79.20;;;;;;5026680;28;20489;-80
2023/03/18 03:14:33;;;;;;;12.13;8.13;;;9.80;79.20;;;;;;5014281;28;20451;-80
2023/03/18 03:17:03;;;;;;;20.03;9.03;;;9.80;79.20;;;;;;5029528;28;20480;-80
2023/03/18 03:19:32;;;;;;;11.37;7.80;;;9.80;79.20;;;;;;5030296;28;20525;-80
2023/03/18 03:22:02;;;;;;;13.13;9.00;;;9.80;79.20;;;;;;5030726;28;20445;-80
2023/03/18 03:24:31;;;;;;;15.63;9.87;;;9.80;79.20;;;;;;5026451;28;20468;-81
2023/03/18 03:27:00;;;;;;;19.70;11.67;;;9.80;79.20;;;;;;5023596;28;20465;-81
2023/03/18 03:29:29;;;;;;;23.10;11.87;;;9.80;79.20;;;;;;5041760;28;20490;-79
2023/03/18 03:32:00;;;;;;;15.47;9.90;;;9.90;79.20;;;;;;5008442;28;20493;-80
2023/03/18 03:34:31;;;;;;;15.00;9.07;;;9.90;79.20;;;;;;5009633;28;20463;-80
2023/03/18 03:37:01;;;;;;;13.37;8.20;;;9.90;79.20;;;;;;5025704;28;20462;-80
2023/03/18 03:39:31;;;;;;;13.43;7.67;;;9.90;79.10;;;;;;5030375;28;20453;-80
2023/03/18 03:42:05;;;;;;;14.13;8.67;;;9.80;79.10;;;;;;5023290;28;20588;-80
2023/03/18 03:44:36;;;;;;;12.53;8.90;;;9.80;79.20;;;;;;5018222;28;20445;-80
2023/03/18 03:47:09;;;;;;;18.30;12.20;;;9.80;79.10;;;;;;5019897;28;20459;-80
2023/03/18 03:49:40;;;;;;;26.53;14.63;;;9.80;79.20;;;;;;5011342;28;20705;-80
2023/03/18 03:52:09;;;;;;;21.57;11.80;;;9.80;79.20;;;;;;4991743;28;20632;-79
2023/03/18 03:54:41;;;;;;;20.40;9.67;;;9.80;79.20;;;;;;5012369;28;20460;-80
2023/03/18 03:57:19;;;;;;;15.80;9.40;;;9.80;79.20;;;;;;5008327;28;20532;-80
2023/03/18 03:59:49;;;;;;;12.40;8.67;;;9.80;79.20;;;;;;5027676;28;20502;-80
2023/03/18 04:02:44;;;;;;;14.77;8.30;;;9.80;79.20;;;;;;5020699;28;20457;-80
2023/03/18 04:08:10;;;;;;;13.63;7.73;;;9.80;79.10;;;;;;5022982;28;20920;-78
2023/03/18 04:10:40;;;;;;;18.00;10.10;;;9.80;79.10;;;;;;5009416;28;20473;-81
2023/03/18 04:13:11;;;;;;;16.77;9.77;;;9.80;79.10;;;;;;5009792;28;20527;-79
2023/03/18 04:18:34;;;;;;;12.33;8.53;;;9.70;79.10;;;;;;5025899;28;20469;-80
2023/03/18 04:21:06;;;;;;;14.10;8.50;;;9.70;79.10;;;;;;5012587;28;21025;-79
2023/03/18 04:23:46;;;;;;;11.70;7.10;;;9.70;79.20;;;;;;5008078;28;20480;-80
2023/03/18 04:26:16;;;;;;;13.73;8.00;;;9.70;79.20;;;;;;5005844;28;20468;-80
2023/03/18 04:29:07;;;;;;;14.23;8.57;;;9.70;79.30;;;;;;5023172;28;20479;-80
2023/03/18 04:31:39;;;;;;;13.07;8.33;;;9.70;79.30;;;;;;5007243;28;20481;-79
2023/03/18 04:34:09;;;;;;;11.00;6.77;;;9.70;79.20;;;;;;5014015;28;20809;-79
2023/03/18 04:36:38;;;;;;;19.07;9.03;;;9.70;79.30;;;;;;5021820;28;20449;-79
2023/03/18 04:39:08;;;;;;;12.20;7.77;;;9.70;79.30;;;;;;5017196;28;20565;-80
2023/03/18 04:41:40;;;;;;;12.30;6.87;;;9.70;79.20;;;;;;5004550;28;20524;-79
2023/03/18 04:44:09;;;;;;;10.93;6.67;;;9.70;79.20;;;;;;4985788;28;20460;-79
2023/03/18 04:46:47;;;;;;;11.87;7.80;;;9.70;79.10;;;;;;5003743;28;20461;-79
2023/03/18 04:49:16;;;;;;;11.90;7.40;;;9.70;79.20;;;;;;5004505;28;20449;-80
2023/03/18 04:51:47;;;;;;;12.27;7.90;;;9.70;79.20;;;;;;5024881;28;20510;-79
2023/03/18 04:54:24;;;;;;;26.93;15.90;;;9.70;79.20;;;;;;5014630;28;20463;-79
2023/03/18 04:56:56;;;;;;;28.33;15.10;;;9.70;79.30;;;;;;5021873;28;20455;-79
2023/03/18 04:59:29;;;;;;;33.37;19.10;;;9.60;79.30;;;;;;4993634;28;20490;-79
2023/03/18 05:01:58;;;;;;;44.20;24.87;;;9.60;79.40;;;;;;4997601;28;20627;-79
2023/03/18 05:04:29;;;;;;;47.10;27.40;;;9.70;79.40;;;;;;5018967;28;20529;-79
2023/03/18 05:06:58;;;;;;;28.93;18.20;;;9.70;79.40;;;;;;5019835;28;20456;-79
2023/03/18 05:09:33;;;;;;;24.67;15.27;;;9.70;79.50;;;;;;5028320;28;20472;-79
2023/03/18 05:12:02;;;;;;;30.77;14.30;;;9.70;79.50;;;;;;5000948;28;20465;-80
2023/03/18 05:14:37;;;;;;;27.67;14.70;;;9.80;79.50;;;;;;5004614;28;20463;-80
2023/03/18 05:17:14;;;;;;;19.83;13.17;;;9.80;79.50;;;;;;5021294;28;20466;-79
2023/03/18 05:19:55;;;;;;;24.47;12.67;;;9.80;79.40;;;;;;5021688;28;20456;-80
2023/03/18 05:22:25;;;;;;;19.67;12.70;;;9.80;79.40;;;;;;5006140;28;20971;-79
2023/03/18 05:25:09;;;;;;;18.27;10.53;;;9.80;79.40;;;;;;5006797;28;20468;-80
2023/03/18 05:27:48;;;;;;;18.37;11.07;;;9.80;79.40;;;;;;5010490;28;20617;-79
2023/03/18 05:30:27;;;;;;;17.30;10.93;;;9.70;79.30;;;;;;4996310;28;20465;-79
2023/03/18 05:33:06;;;;;;;17.07;10.43;;;9.70;79.50;;;;;;5011038;28;20499;-79
2023/03/18 05:35:45;;;;;;;19.13;12.23;;;9.70;79.60;;;;;;4999285;28;20535;-80
2023/03/18 05:38:20;;;;;;;23.33;15.37;;;9.70;79.60;;;;;;5026793;28;20448;-79
2023/03/18 05:40:49;;;;;;;29.30;17.20;;;9.80;79.60;;;;;;5011704;28;20519;-79
2023/03/18 05:43:28;;;;;;;19.23;11.60;;;9.80;79.60;;;;;;5006529;28;20488;-79
2023/03/18 05:46:00;;;;;;;21.63;10.33;;;9.80;79.60;;;;;;5020407;28;20453;-79
2023/03/18 05:48:57;;;;;;;17.70;9.47;;;9.80;79.60;;;;;;5004274;28;20476;-78
2023/03/18 05:51:32;;;;;;;12.57;9.47;;;9.80;79.50;;;;;;5030696;28;20543;-79
2023/03/18 05:54:04;;;;;;;15.27;11.43;;;9.70;79.50;;;;;;5014088;28;20716;-79
2023/03/18 05:56:44;;;;;;;30.00;22.03;;;9.80;79.60;;;;;;5024797;28;20460;-78
2023/03/18 05:59:39;;;;;;;17.93;11.93;;;9.70;79.60;;;;;;5012821;28;20457;-80
2023/03/18 06:02:11;;;;;;;17.73;11.57;;;9.70;79.70;;;;;;5033233;28;20512;-79
2023/03/18 06:04:45;;;;;;;15.97;10.57;;;9.70;79.80;;;;;;5016424;28;20448;-79
2023/03/18 06:07:21;;;;;;;19.00;10.93;;;9.70;79.90;;;;;;5025901;28;20456;-79
2023/03/18 06:09:53;;;;;;;15.03;11.13;;;9.80;80.00;;;;;;5026048;28;20444;-80
2023/03/18 06:12:26;;;;;;;19.40;12.57;;;9.80;79.90;;;;;;5012001;28;20560;-79
2023/03/18 06:15:21;;;;;;;17.13;12.20;;;9.80;79.90;;;;;;5015874;28;20462;-79
2023/03/18 06:17:51;;;;;;;17.80;10.70;;;9.90;79.90;;;;;;5039986;28;20465;-80
2023/03/18 06:20:34;;;;;;;14.23;10.00;;;9.90;79.90;;;;;;5015702;28;20466;-80
2023/03/18 06:23:08;;;;;;;15.17;10.27;;;10.00;79.90;;;;;;5031711;28;20463;-79
2023/03/18 06:25:39;;;;;;;15.40;9.80;;;10.00;79.90;;;;;;5029515;28;20506;-79
2023/03/18 06:28:21;;;;;;;12.60;9.43;;;10.00;79.90;;;;;;5012232;28;20481;-81
2023/03/18 06:30:56;;;;;;;17.83;12.53;;;10.10;79.90;;;;;;5030368;28;20494;-80
2023/03/18 06:33:29;;;;;;;24.83;13.17;;;10.10;79.90;;;;;;5002916;28;20487;-80
2023/03/18 06:36:01;;;;;;;24.03;15.10;;;10.10;79.90;;;;;;5017979;28;20460;-79
2023/03/18 06:38:35;;;;;;;27.90;15.70;;;10.20;79.80;;;;;;5002015;28;20462;-80
2023/03/18 06:41:05;;;;;;;40.50;23.10;;;10.20;79.80;;;;;;5004899;28;21329;-79
2023/03/18 06:43:42;;;;;;;44.60;24.03;;;10.20;79.80;;;;;;5012080;28;20540;-80
2023/03/18 06:46:13;;;;;;;76.37;42.07;;;10.30;79.80;;;;;;5006913;28;20463;-80
2023/03/18 06:48:48;;;;;;;48.07;28.47;;;10.30;79.80;;;;;;5013449;28;20452;-80
2023/03/18 06:51:22;;;;;;;43.33;26.40;;;10.30;79.70;;;;;;5026755;28;20537;-80
2023/03/18 06:53:57;;;;;;;33.00;20.30;;;10.40;79.70;;;;;;5025516;28;20472;-79
2023/03/18 06:56:27;;;;;;;21.33;12.53;;;10.40;79.70;;;;;;5007834;28;20686;-80
2023/03/18 06:59:02;;;;;;;24.40;13.30;;;10.40;79.70;;;;;;5012762;28;20459;-80
2023/03/18 07:01:31;;;;;;;26.50;13.93;;;10.40;79.70;;;;;;5001069;28;20492;-80
2023/03/18 07:04:01;;;;;;;22.13;14.00;;;10.50;79.60;;;;;;4994505;28;20453;-80
2023/03/18 07:06:30;;;;;;;27.37;15.50;;;10.50;79.60;;;;;;5019890;28;20480;-80
2023/03/18 07:09:00;;;;;;;28.97;16.20;;;10.50;79.60;;;;;;5020696;28;20449;-79
2023/03/18 07:14:17;;;;;;;29.03;14.03;;;10.50;79.70;;;;;;5023780;28;20491;-81
2023/03/18 07:16:46;;;;;;;23.40;15.23;;;10.60;79.80;;;;;;5007379;28;20608;-79
2023/03/18 07:19:16;;;;;;;22.70;15.93;;;10.60;79.70;;;;;;5008268;28;20465;-80
2023/03/18 07:21:48;;;;;;;23.00;15.63;;;10.70;79.70;;;;;;5025264;28;20481;-80
2023/03/18 07:24:20;;;;;;;23.40;15.40;;;10.70;79.80;;;;;;5022379;28;20453;-81
2023/03/18 07:26:51;;;;;;;22.57;14.90;;;10.70;79.70;;;;;;5022797;28;20464;-80
2023/03/18 07:29:20;;;;;;;22.77;13.47;;;10.70;79.70;;;;;;5015308;28;20462;-79
2023/03/18 07:31:50;;;;;;;17.40;12.10;;;10.80;79.80;;;;;;5021028;28;20493;-80
2023/03/18 07:34:20;;;;;;;19.13;11.97;;;10.80;79.70;;;;;;5023933;28;20474;-80
2023/03/18 07:36:52;;;;;;;13.67;10.47;;;10.80;79.80;;;;;;5005302;28;20527;-80
2023/03/18 07:39:25;;;;;;;16.50;11.80;;;10.90;79.90;;;;;;5024572;28;20456;-79
2023/03/18 07:41:58;;;;;;;21.07;15.20;;;10.90;79.90;;;;;;5022278;28;20480;-79
2023/03/18 07:44:31;;;;;;;20.10;13.60;;;10.90;80.00;;;;;;5006249;28;20458;-81
2023/03/18 07:47:01;;;;;;;15.20;10.53;;;11.00;80.00;;;;;;5018475;28;20983;-81
2023/03/18 07:49:30;;;;;;;17.30;12.07;;;11.00;80.00;;;;;;5011488;28;20989;-80
2023/03/18 07:52:02;;;;;;;25.70;15.93;;;11.10;79.90;;;;;;5024471;28;20476;-80
2023/03/18 07:54:34;;;;;;;31.10;15.87;;;11.20;79.90;;;;;;5027964;28;20480;-80
2023/03/18 07:57:03;;;;;;;27.07;16.97;;;11.20;79.70;;;;;;5024863;28;20472;-80
2023/03/18 07:59:33;;;;;;;29.53;18.53;;;11.30;79.60;;;;;;5025128;28;20458;-80
2023/03/18 08:02:01;;;;;;;20.50;12.10;;;11.30;79.60;;;;;;5026256;28;20485;-79
2023/03/18 08:04:31;;;;;;;21.27;10.10;;;11.40;79.50;;;;;;5025495;28;20455;-80
2023/03/18 08:07:05;;;;;;;17.53;9.67;;;11.50;79.30;;;;;;5022641;28;20855;-81
2023/03/18 08:09:38;;;;;;;12.97;9.40;;;11.50;79.20;;;;;;5006972;28;20509;-79
2023/03/18 08:12:10;;;;;;;10.80;7.83;;;11.60;79.00;;;;;;5010191;28;20474;-80
2023/03/18 08:14:38;;;;;;;9.60;6.53;;;11.70;78.80;;;;;;5000492;28;20936;-80
2023/03/18 08:17:09;;;;;;;9.93;6.13;;;11.80;78.60;;;;;;5016738;28;20459;-80
2023/03/18 08:19:38;;;;;;;10.63;7.20;;;11.80;78.60;;;;;;5021255;28;20468;-80
2023/03/18 08:22:08;;;;;;;15.90;9.00;;;11.90;78.50;;;;;;5030451;28;20461;-80
2023/03/18 08:24:39;;;;;;;15.40;8.40;;;12.00;78.40;;;;;;5026756;28;20471;-81
2023/03/18 08:27:10;;;;;;;15.20;8.60;;;12.00;78.20;;;;;;5026120;28;20450;-80
2023/03/18 08:29:41;;;;;;;12.50;7.13;;;12.10;78.00;;;;;;5024906;28;20519;-79
2023/03/18 08:32:10;;;;;;;11.13;4.10;;;12.20;77.70;;;;;;5035492;28;20939;-80
2023/03/18 08:34:41;;;;;;;10.40;5.20;;;12.20;77.40;;;;;;5042525;28;20475;-81
2023/03/18 08:37:13;;;;;;;9.50;4.80;;;12.30;77.30;;;;;;5028693;28;20465;-81
2023/03/18 08:39:49;;;;;;;7.10;4.40;;;12.30;77.20;;;;;;5024797;28;20460;-79
2023/03/18 08:42:17;;;;;;;12.13;4.43;;;12.40;77.00;;;;;;5026307;28;20460;-79
2023/03/18 08:44:46;;;;;;;8.33;4.40;;;12.40;76.90;;;;;;5020895;28;20454;-80
2023/03/18 08:47:14;;;;;;;12.10;4.33;;;12.40;76.80;;;;;;5040598;28;20469;-79
2023/03/18 08:49:50;;;;;;;8.10;3.90;;;12.40;76.60;;;;;;5010940;28;20506;-80
2023/03/18 08:52:21;;;;;;;11.33;4.20;;;12.50;76.50;;;;;;5016147;28;20462;-79
2023/03/18 08:54:51;;;;;;;10.70;3.87;;;12.50;76.40;;;;;;5025478;28;20591;-80
2023/03/18 08:57:21;;;;;;;8.90;4.20;;;12.50;76.40;;;;;;5014074;28;20482;-79
2023/03/18 08:59:49;;;;;;;7.10;3.80;;;12.50;76.30;;;;;;5019725;28;20469;-80
2023/03/18 09:02:22;;;;;;;7.60;4.33;;;12.50;76.20;;;;;;5027776;28;20483;-80
2023/03/18 09:04:54;;;;;;;7.83;3.40;;;12.60;76.10;;;;;;5014515;28;20456;-79
2023/03/18 09:07:29;;;;;;;7.10;3.47;;;12.70;75.70;;;;;;5033499;28;20437;-81
2023/03/18 09:10:03;;;;;;;6.97;3.77;;;12.70;75.60;;;;;;5023455;28;20464;-78
2023/03/18 09:12:32;;;;;;;6.90;3.30;;;12.70;75.50;;;;;;5026686;28;20543;-80
2023/03/18 09:15:00;;;;;;;15.43;3.90;;;12.70;75.40;;;;;;5028501;28;20519;-80
2023/03/18 09:17:30;;;;;;;8.47;4.00;;;12.80;75.40;;;;;;5025630;28;20460;-80
2023/03/18 09:20:21;;;;;;;11.00;5.13;;;12.90;75.20;;;;;;5010495;28;20543;-82
2023/03/18 09:22:53;;;;;;;5.93;3.03;;;12.90;75.00;;;;;;5018866;28;20468;-82
2023/03/18 09:25:23;;;;;;;15.77;3.80;;;13.00;74.90;;;;;;5036439;28;20453;-81
2023/03/18 09:27:54;;;;;;;8.63;3.23;;;13.10;74.60;;;;;;5011313;28;20453;-82
2023/03/18 09:30:27;;;;;;;6.90;2.90;;;13.10;74.40;;;;;;5024815;28;20472;-80
2023/03/18 09:32:56;;;;;;;5.03;2.43;;;13.20;74.00;;;;;;5012644;28;20472;-80
2023/03/18 09:35:28;;;;;;;9.93;2.67;;;13.20;74.00;;;;;;5026205;28;20576;-79
2023/03/18 09:37:58;;;;;;;6.73;2.20;;;13.20;74.00;;;;;;5026609;28;20530;-81
2023/03/18 09:40:32;;;;;;;7.47;2.43;;;13.30;73.70;;;;;;5011991;28;20465;-80
2023/03/18 09:43:22;;;;;;;7.07;2.80;;;13.40;73.10;;;;;;5009117;28;20483;-80
2023/03/18 09:46:04;;;;;;;6.07;2.40;;;13.40;72.80;;;;;;5023147;28;20445;-81
2023/03/18 09:49:05;;;;;;;11.10;2.80;;;13.40;73.00;;;;;;5017883;28;20529;-81
2023/03/18 09:51:47;;;;;;;5.40;2.10;;;13.40;72.60;;;;;;5009574;28;20467;-79
2023/03/18 09:54:24;;;;;;;6.90;2.50;;;13.40;72.80;;;;;;5029477;28;21171;-81
2023/03/18 09:56:57;;;;;;;7.90;2.50;;;13.50;72.70;;;;;;4997969;28;20467;-79
2023/03/18 09:59:36;;;;;;;5.87;2.40;;;13.50;72.30;;;;;;5005350;28;20523;-81
2023/03/18 10:02:13;;;;;;;8.00;2.17;;;13.60;72.10;;;;;;5024581;28;20482;-80
2023/03/18 10:04:48;;;;;;;11.20;2.80;;;13.60;71.80;;;;;;5025587;28;20523;-80
2023/03/18 10:07:21;;;;;;;7.30;2.70;;;13.70;71.60;;;;;;5021437;28;20466;-78
2023/03/18 10:09:54;;;;;;;10.53;3.70;;;13.70;71.50;;;;;;5009661;28;20515;-79
2023/03/18 10:12:33;;;;;;;7.43;2.80;;;13.70;71.60;;;;;;5005973;28;20489;-82
2023/03/18 10:15:15;;;;;;;6.77;2.27;;;13.70;71.70;;;;;;5017670;28;20522;-80
2023/03/18 10:17:49;;;;;;;7.77;2.63;;;13.80;71.40;;;;;;5025807;28;20466;-82
2023/03/18 10:20:30;;;;;;;6.30;2.73;;;13.90;71.30;;;;;;4984259;28;20467;-79
2023/03/18 10:23:06;;;;;;;7.17;2.73;;;13.90;71.10;;;;;;5006935;28;20457;-79
2023/03/18 10:25:39;;;;;;;8.13;2.23;;;14.00;70.80;;;;;;5017809;28;20528;-80
2023/03/18 10:28:40;;;;;;;6.93;2.10;;;14.00;70.60;;;;;;5003407;28;20452;-82
2023/03/18 10:31:29;;;;;;;9.17;2.60;;;14.00;70.40;;;;;;5023374;28;20792;-83
2023/03/18 10:34:01;;;;;;;9.77;4.80;;;14.10;70.40;;;;;;5006016;28;20487;-79
2023/03/18 10:36:41;;;;;;;6.23;3.07;;;14.20;70.20;;;;;;5005656;28;20449;-81
2023/03/18 10:39:15;;;;;;;6.10;2.70;;;14.20;70.10;;;;;;5006935;28;20454;-81
2023/03/18 10:41:50;;;;;;;12.93;2.70;;;14.30;70.00;;;;;;5022198;28;20454;-80
2023/03/18 10:44:25;;;;;;;6.80;2.63;;;14.30;69.80;;;;;;5034104;28;20446;-82
2023/03/18 10:46:59;;;;;;;15.70;3.00;;;14.30;69.80;;;;;;5024669;28;21681;-82
2023/03/18 10:49:33;;;;;;;7.20;2.70;;;14.40;69.80;;;;;;5029361;28;20932;-82
2023/03/18 10:52:10;;;;;;;5.10;1.97;;;14.40;69.60;;;;;;5010003;28;20503;-78
2023/03/18 10:54:42;;;;;;;5.97;2.70;;;14.40;69.70;;;;;;5022124;28;20615;-82
2023/03/18 10:57:14;;;;;;;8.70;2.83;;;14.40;69.80;;;;;;5004791;28;20458;-80
2023/03/18 10:59:46;;;;;;;5.30;1.70;;;14.50;69.70;;;;;;5014143;28;20456;-80
2023/03/18 11:02:19;;;;;;;7.40;2.93;;;14.60;69.40;;;;;;5008273;28;20665;-82
2023/03/18 11:04:53;;;;;;;6.63;2.17;;;14.60;69.10;;;;;;5027445;28;20506;-82
2023/03/18 11:07:24;;;;;;;7.10;2.90;;;14.60;69.00;;;;;;5029783;28;20464;-81
2023/03/18 11:09:55;;;;;;;9.87;3.57;;;14.60;68.80;;;;;;5022070;28;20472;-83
2023/03/18 11:12:27;;;;;;;5.90;2.80;;;14.60;68.90;;;;;;5029483;28;20879;-80
2023/03/18 11:15:01;;;;;;;9.50;3.10;;;14.70;69.00;;;;;;5022507;28;20898;-81
2023/03/18 11:17:32;;;;;;;6.60;2.93;;;14.70;69.10;;;;;;5011562;28;20503;-79
2023/03/18 11:20:06;;;;;;;6.90;3.23;;;14.70;69.20;;;;;;5020415;28;20463;-82
2023/03/18 11:22:36;;;;;;;9.43;3.17;;;14.80;69.00;;;;;;5020462;28;20768;-80
2023/03/18 11:25:13;;;;;;;8.60;2.80;;;14.90;69.10;;;;;;5025141;28;20457;-81
2023/03/18 11:27:45;;;;;;;6.60;3.30;;;14.90;69.20;;;;;;5026403;28;20477;-80
2023/03/18 11:30:27;;;;;;;8.47;2.73;;;15.00;69.00;;;;;;5008899;28;20527;-82
2023/03/18 11:33:07;;;;;;;7.57;2.53;;;15.10;68.70;;;;;;5033045;28;20466;-82
2023/03/18 11:35:40;;;;;;;11.67;2.83;;;15.10;68.70;;;;;;5032076;28;20482;-80
2023/03/18 11:38:15;;;;;;;10.50;3.67;;;15.20;68.60;;;;;;5038536;28;20460;-81
2023/03/18 11:40:47;;;;;;;7.80;3.27;;;15.10;68.50;;;;;;5013125;28;21366;-81
2023/03/18 11:43:19;;;;;;;5.83;2.40;;;15.20;68.50;;;;;;5009903;28;20438;-80
2023/03/18 11:45:59;;;;;;;8.10;3.17;;;15.20;68.50;;;;;;5020365;28;20485;-81
2023/03/18 11:48:35;;;;;;;7.57;2.57;;;15.30;68.30;;;;;;5033190;28;20471;-81
2023/03/18 11:51:25;;;;;;;7.07;3.00;;;15.30;68.30;;;;;;5020751;28;20471;-82
2023/03/18 11:54:23;;;;;;;7.10;2.97;;;15.30;67.80;;;;;;5034665;28;20487;-81
2023/03/18 11:56:57;;;;;;;8.63;2.83;;;15.30;67.60;;;;;;5010786;28;20472;-82
2023/03/18 11:59:45;;;;;;;6.43;2.60;;;15.40;67.60;;;;;;5015084;28;20446;-81
2023/03/18 12:02:29;;;;;;;5.20;2.20;;;15.40;67.40;;;;;;5027654;28;20475;-81
2023/03/18 12:05:27;;;;;;;7.50;3.07;;;15.40;67.20;;;;;;5030374;28;20528;-82
2023/03/18 12:08:08;;;;;;;8.10;2.87;;;15.40;67.30;;;;;;5015889;28;20457;-80
2023/03/18 12:10:45;;;;;;;11.60;2.50;;;15.40;67.30;;;;;;5038548;28;20449;-82
2023/03/18 12:13:34;;;;;;;7.97;2.53;;;15.40;67.30;;;;;;5031303;28;20473;-80
2023/03/18 12:16:13;;;;;;;5.70;2.43;;;15.50;67.30;;;;;;5017784;28;20471;-80
2023/03/18 12:19:07;;;;;;;7.00;2.80;;;15.50;67.40;;;;;;5020858;28;20463;-81
2023/03/18 12:22:03;;;;;;;10.87;3.50;;;15.60;67.40;;;;;;5024231;28;20464;-80
2023/03/18 12:24:48;;;;;;;5.90;2.80;;;15.70;67.00;;;;;;5022130;28;20452;-80
2023/03/18 12:27:25;;;;;;;5.83;2.10;;;15.70;66.90;;;;;;5019291;28;20871;-81
2023/03/18 12:30:08;;;;;;;9.20;2.63;;;15.70;66.90;;;;;;5030677;28;20551;-83
2023/03/18 12:32:42;;;;;;;10.77;2.80;;;15.70;67.00;;;;;;5038195;28;20520;-79
2023/03/18 12:35:29;;;;;;;9.00;2.83;;;15.70;66.80;;;;;;5038563;28;20456;-80
2023/03/18 12:38:14;;;;;;;8.10;3.47;;;15.80;66.90;;;;;;5017144;28;20466;-80
2023/03/18 12:40:56;;;;;;;7.40;3.37;;;15.80;66.80;;;;;;5030399;28;20458;-81
2023/03/18 12:43:51;;;;;;;6.70;2.20;;;15.80;66.60;;;;;;5034436;28;20455;-81
2023/03/18 12:46:30;;;;;;;7.70;2.93;;;15.90;66.60;;;;;;5025227;28;20475;-80
2023/03/18 12:49:05;;;;;;;6.73;2.20;;;15.90;66.60;;;;;;5029710;28;20493;-80
2023/03/18 12:51:44;;;;;;;6.70;2.17;;;16.00;66.60;;;;;;5012766;28;20471;-79
2023/03/18 12:54:20;;;;;;;6.30;2.13;;;16.00;66.70;;;;;;5029170;28;20460;-81
2023/03/18 12:56:57;;;;;;;6.23;2.20;;;16.00;66.60;;;;;;5015391;28;20911;-81
2023/03/18 12:59:37;;;;;;;6.60;2.20;;;16.10;66.80;;;;;;5022748;28;20568;-82
2023/03/18 13:02:27;;;;;;;5.87;2.53;;;16.10;66.70;;;;;;4998879;28;21029;-80
2023/03/18 13:05:01;;;;;;;6.63;2.03;;;16.20;66.60;;;;;;5003949;28;20472;-80
2023/03/18 13:07:41;;;;;;;12.40;2.67;;;16.20;66.60;;;;;;5022024;28;20457;-80
2023/03/18 13:10:20;;;;;;;6.03;2.33;;;16.30;66.50;;;;;;5020234;28;20452;-80
2023/03/18 13:12:53;;;;;;;14.30;2.47;;;16.30;66.40;;;;;;5018919;28;20494;-81
2023/03/18 13:15:30;;;;;;;5.00;2.30;;;16.30;66.20;;;;;;5001286;28;20474;-79
2023/03/18 13:18:05;;;;;;;7.40;2.37;;;16.20;66.00;;;;;;5015870;28;20478;-79
2023/03/18 13:20:38;;;;;;;6.90;2.57;;;16.10;65.90;;;;;;5021111;28;20495;-77
2023/03/18 13:23:21;;;;;;;5.00;2.10;;;16.10;65.90;;;;;;5022064;28;20452;-77
2023/03/18 13:26:02;;;;;;;6.70;2.47;;;16.20;65.80;;;;;;5009549;28;20550;-78
2023/03/18 13:28:53;;;;;;;6.33;2.00;;;16.10;66.20;;;;;;5022392;28;20459;-78